createdAt,value
2022-09-18T00:01:25.482Z,45.87
2022-09-18T00:03:54.961Z,46.15
2022-09-18T00:06:24.600Z,45.95
2022-09-18T00:08:53.283Z,46.03
2022-09-18T00:11:22.489Z,46.09
2022-09-18T00:13:50.179Z,46.00
2022-09-18T00:16:18.507Z,45.85
2022-09-18T00:18:45.865Z,45.83
2022-09-18T00:21:15.321Z,45.68
2022-09-18T00:23:42.732Z,45.90
2022-09-18T00:26:11.112Z,45.98
2022-09-18T00:28:37.845Z,45.75
2022-09-18T00:31:10.042Z,45.80
2022-09-18T00:33:37.771Z,45.91
2022-09-18T00:36:06.103Z,45.81
2022-09-18T00:38:33.628Z,45.78
2022-09-18T00:41:02.252Z,45.71
2022-09-18T00:43:31.933Z,45.57
2022-09-18T00:46:09.550Z,45.80
2022-09-18T00:49:03.231Z,45.59
2022-09-18T00:51:33.236Z,45.73
2022-09-18T00:54:15.116Z,45.54
2022-09-18T00:56:42.276Z,45.78
2022-09-18T00:59:12.065Z,45.58
2022-09-18T01:01:38.733Z,45.54
2022-09-18T01:04:10.646Z,45.46
2022-09-18T01:06:41.278Z,45.62
2022-09-18T01:09:44.455Z,45.65
2022-09-18T01:12:18.952Z,45.74
2022-09-18T01:15:01.017Z,45.85
2022-09-18T01:17:33.737Z,45.64
2022-09-18T01:20:25.717Z,45.56
2022-09-18T01:23:26.550Z,45.62
2022-09-18T01:26:16.446Z,45.80
2022-09-18T01:28:50.965Z,45.62
2022-09-18T01:31:26.001Z,45.55
2022-09-18T01:33:56.660Z,45.48
2022-09-18T01:36:27.008Z,45.43
2022-09-18T01:39:05.835Z,45.80
2022-09-18T01:41:35.328Z,45.52
2022-09-18T01:44:08.216Z,45.58
2022-09-18T01:46:39.993Z,45.70
2022-09-18T01:49:11.494Z,45.64
2022-09-18T01:52:06.904Z,45.51
2022-09-18T01:54:38.966Z,45.43
2022-09-18T01:57:24.544Z,45.71
2022-09-18T02:00:09.377Z,45.61
2022-09-18T02:02:58.500Z,45.26
2022-09-18T02:05:33.564Z,45.70
2022-09-18T02:08:07.397Z,45.50
2022-09-18T02:10:38.442Z,45.51
2022-09-18T02:13:09.656Z,45.51
2022-09-18T02:15:39.447Z,45.74
2022-09-18T02:18:17.949Z,45.50
2022-09-18T02:20:46.909Z,45.66
2022-09-18T02:23:14.457Z,45.53
2022-09-18T02:25:54.655Z,45.65
2022-09-18T02:28:23.963Z,45.43
2022-09-18T02:30:51.018Z,45.44
2022-09-18T02:33:25.321Z,45.50
2022-09-18T02:36:24.248Z,45.57
2022-09-18T02:39:14.867Z,45.38
2022-09-18T02:42:04.849Z,45.42
2022-09-18T02:45:01.336Z,45.72
2022-09-18T02:47:34.444Z,45.51
2022-09-18T02:50:03.784Z,45.57
2022-09-18T02:52:41.932Z,45.75
2022-09-18T02:55:23.770Z,45.74
2022-09-18T02:57:57.423Z,45.75
2022-09-18T03:00:26.259Z,45.80
2022-09-18T03:02:58.742Z,45.66
2022-09-18T03:05:34.440Z,45.60
2022-09-18T03:08:02.514Z,45.68
2022-09-18T03:10:31.258Z,45.71
2022-09-18T03:12:58.077Z,45.81
2022-09-18T03:15:24.595Z,45.72
2022-09-18T03:17:51.226Z,45.50
2022-09-18T03:20:17.873Z,45.66
2022-09-18T03:22:44.441Z,45.73
2022-09-18T03:25:14.430Z,45.75
2022-09-18T03:27:42.952Z,45.45
2022-09-18T03:30:12.740Z,45.68
2022-09-18T03:32:39.492Z,45.62
2022-09-18T03:35:08.319Z,45.75
2022-09-18T03:37:35.231Z,45.66
2022-09-18T03:40:04.440Z,45.56
2022-09-18T03:42:31.541Z,45.63
2022-09-18T03:45:00.403Z,45.85
2022-09-18T03:47:27.545Z,45.60
2022-09-18T03:49:54.332Z,45.83
2022-09-18T03:52:21.951Z,45.93
2022-09-18T03:54:56.226Z,45.90
2022-09-18T03:57:46.923Z,45.63
2022-09-18T04:00:42.974Z,46.00
2022-09-18T04:03:18.479Z,45.74
2022-09-18T04:06:08.065Z,45.87
2022-09-18T04:09:13.242Z,45.99
2022-09-18T04:11:47.309Z,45.87
2022-09-18T04:14:14.737Z,45.80
2022-09-18T04:16:41.249Z,45.74
2022-09-18T04:19:08.540Z,45.76
2022-09-18T04:21:35.117Z,45.74
2022-09-18T04:24:01.999Z,45.86
2022-09-18T04:26:29.609Z,45.59
2022-09-18T04:28:59.308Z,45.83
2022-09-18T04:31:30.829Z,45.59
2022-09-18T04:34:01.965Z,45.89
2022-09-18T04:36:28.588Z,45.84
2022-09-18T04:38:55.220Z,45.75
2022-09-18T04:41:21.965Z,45.90
2022-09-18T04:43:48.464Z,45.60
2022-09-18T04:46:15.996Z,45.63
2022-09-18T04:48:48.043Z,45.73
2022-09-18T04:51:16.429Z,45.91
2022-09-18T04:53:48.052Z,45.72
2022-09-18T04:56:15.129Z,45.82
2022-09-18T04:58:46.249Z,45.62
2022-09-18T05:01:12.994Z,45.72
2022-09-18T05:03:41.280Z,45.73
2022-09-18T05:06:10.373Z,45.64
2022-09-18T05:08:37.220Z,45.73
2022-09-18T05:11:04.887Z,45.76
2022-09-18T05:13:34.672Z,45.72
2022-09-18T05:16:09.525Z,45.80
2022-09-18T05:18:36.652Z,45.84
2022-09-18T05:21:04.856Z,45.72
2022-09-18T05:23:34.495Z,45.85
2022-09-18T05:26:02.252Z,45.86
2022-09-18T05:28:28.900Z,45.97
2022-09-18T05:31:01.125Z,45.67
2022-09-18T05:33:34.527Z,45.71
2022-09-18T05:36:04.260Z,45.70
2022-09-18T05:38:31.240Z,45.55
2022-09-18T05:41:00.984Z,45.62
2022-09-18T05:43:27.788Z,45.60
2022-09-18T05:45:54.545Z,45.73
2022-09-18T05:48:28.230Z,45.86
2022-09-18T05:50:57.891Z,45.72
2022-09-18T05:53:26.889Z,45.71
2022-09-18T05:56:32.121Z,45.69
2022-09-18T05:59:00.752Z,45.73
2022-09-18T06:01:30.649Z,45.61
2022-09-18T06:04:13.549Z,45.59
2022-09-18T06:06:46.317Z,45.48
2022-09-18T06:09:14.319Z,45.52
2022-09-18T06:11:40.907Z,45.75
2022-09-18T06:14:07.735Z,45.50
2022-09-18T06:16:37.485Z,45.57
2022-09-18T06:19:08.548Z,45.43
2022-09-18T06:21:35.092Z,45.43
2022-09-18T06:24:04.030Z,45.56
2022-09-18T06:26:59.903Z,45.65
2022-09-18T06:29:27.032Z,45.48
2022-09-18T06:32:00.106Z,45.50
2022-09-18T06:34:27.481Z,45.40
2022-09-18T06:36:58.331Z,45.58
2022-09-18T06:39:29.719Z,45.38
2022-09-18T06:42:01.836Z,45.21
2022-09-18T06:44:47.863Z,45.52
2022-09-18T06:47:16.931Z,45.20
2022-09-18T06:49:45.975Z,45.48
2022-09-18T06:52:12.600Z,45.46
2022-09-18T06:54:39.946Z,45.35
2022-09-18T06:57:07.813Z,45.59
2022-09-18T06:59:34.657Z,45.51
2022-09-18T07:02:01.338Z,45.47
2022-09-18T07:04:53.674Z,45.67
2022-09-18T07:07:20.628Z,45.27
2022-09-18T07:09:50.229Z,45.24
2022-09-18T07:12:28.628Z,45.44
2022-09-18T07:14:55.928Z,45.51
2022-09-18T07:17:26.487Z,45.52
2022-09-18T07:19:58.329Z,45.59
2022-09-18T07:22:37.543Z,45.66
2022-09-18T07:25:05.761Z,45.69
2022-09-18T07:27:33.048Z,45.70
2022-09-18T07:30:00.517Z,45.70
2022-09-18T07:32:27.763Z,45.56
2022-09-18T07:34:56.432Z,45.55
2022-09-18T07:37:29.366Z,45.47
2022-09-18T07:40:19.052Z,45.13
2022-09-18T07:43:10.331Z,45.37
2022-09-18T07:45:44.491Z,45.34
2022-09-18T07:48:11.196Z,45.24
2022-09-18T07:50:42.805Z,44.34
2022-09-18T07:53:10.012Z,43.98
2022-09-18T07:55:38.896Z,44.08
2022-09-18T07:58:06.994Z,44.02
2022-09-18T08:01:09.034Z,43.78
2022-09-18T08:03:44.921Z,43.74
2022-09-18T08:06:11.669Z,43.57
2022-09-18T08:08:47.180Z,43.47
2022-09-18T08:11:22.562Z,43.55
2022-09-18T08:14:16.279Z,43.50
2022-09-18T08:17:03.858Z,43.60
2022-09-18T08:19:53.560Z,43.67
2022-09-18T08:22:39.557Z,43.67
2022-09-18T08:25:07.187Z,43.66
2022-09-18T08:27:38.783Z,43.58
2022-09-18T08:30:08.044Z,43.63
2022-09-18T08:32:34.756Z,43.65
2022-09-18T08:35:03.081Z,43.71
2022-09-18T08:37:30.530Z,43.80
2022-09-18T08:40:18.042Z,43.70
2022-09-18T08:43:21.607Z,43.84
2022-09-18T08:45:58.491Z,43.71
2022-09-18T08:48:38.035Z,43.84
2022-09-18T08:51:22.975Z,43.79
2022-09-18T08:53:55.567Z,43.66
2022-09-18T08:56:35.797Z,43.68
2022-09-18T08:59:33.553Z,43.89
2022-09-18T09:02:22.969Z,43.76
2022-09-18T09:04:58.517Z,43.92
2022-09-18T09:07:28.832Z,43.89
2022-09-18T09:10:14.121Z,43.89
2022-09-18T09:12:44.452Z,44.01
2022-09-18T09:15:28.884Z,43.92
2022-09-18T09:18:20.063Z,44.09
2022-09-18T09:20:52.177Z,43.85
2022-09-18T09:23:43.597Z,43.92
2022-09-18T09:26:23.035Z,44.20
2022-09-18T09:29:13.459Z,44.18
2022-09-18T09:32:01.162Z,44.13
2022-09-18T09:35:41.965Z,44.11
2022-09-18T09:38:29.385Z,44.07
2022-09-18T09:40:59.657Z,44.17
2022-09-18T09:43:39.039Z,44.31
2022-09-18T09:46:21.467Z,44.26
2022-09-18T09:49:23.221Z,44.21
2022-09-18T09:52:09.141Z,44.21
2022-09-18T09:54:37.201Z,44.34
2022-09-18T09:57:19.236Z,44.39
2022-09-18T10:00:08.374Z,44.28
2022-09-18T10:03:06.697Z,44.53
2022-09-18T10:05:53.668Z,44.43
2022-09-18T10:08:43.174Z,44.67
2022-09-18T10:11:13.167Z,44.68
2022-09-18T10:13:48.589Z,44.59
2022-09-18T10:16:24.440Z,44.95
2022-09-18T10:18:52.347Z,44.61
2022-09-18T10:21:28.350Z,44.71
2022-09-18T10:24:05.846Z,44.85
2022-09-18T10:26:41.255Z,44.84
2022-09-18T10:29:10.148Z,44.89
2022-09-18T10:31:56.307Z,44.79
2022-09-18T10:34:34.064Z,45.13
2022-09-18T10:37:01.421Z,45.23
2022-09-18T10:39:31.708Z,45.48
2022-09-18T10:42:06.786Z,45.32
2022-09-18T10:44:40.672Z,45.58
2022-09-18T10:47:21.445Z,45.52
2022-09-18T10:49:54.794Z,45.42
2022-09-18T10:52:21.612Z,45.62
2022-09-18T10:54:58.942Z,45.41
2022-09-18T10:58:01.821Z,45.16
2022-09-18T11:00:29.943Z,45.32
2022-09-18T11:03:21.676Z,44.92
2022-09-18T11:06:01.957Z,44.95
2022-09-18T11:08:33.795Z,43.64
2022-09-18T11:11:05.400Z,42.65
2022-09-18T11:13:49.552Z,42.04
2022-09-18T11:16:27.192Z,41.93
2022-09-18T11:19:06.501Z,41.66
2022-09-18T11:21:48.207Z,41.41
2022-09-18T11:24:23.145Z,41.29
2022-09-18T11:26:55.317Z,41.09
2022-09-18T11:29:33.815Z,40.78
2022-09-18T11:32:25.329Z,40.41
2022-09-18T11:34:58.881Z,40.74
2022-09-18T11:37:34.125Z,41.09
2022-09-18T11:40:08.884Z,41.44
2022-09-18T11:42:44.922Z,41.85
2022-09-18T11:45:41.761Z,42.06
2022-09-18T11:48:27.239Z,42.20
2022-09-18T11:51:01.555Z,42.04
2022-09-18T11:53:48.725Z,42.25
2022-09-18T11:56:28.937Z,42.66
2022-09-18T11:59:26.744Z,42.68
2022-09-18T12:02:02.121Z,42.79
2022-09-18T12:04:49.207Z,42.93
2022-09-18T12:07:37.408Z,42.88
2022-09-18T12:10:26.077Z,42.98
2022-09-18T12:13:37.280Z,43.30
2022-09-18T12:16:28.380Z,43.26
2022-09-18T12:18:58.276Z,43.27
2022-09-18T12:21:37.237Z,43.15
2022-09-18T12:24:11.253Z,43.21
2022-09-18T12:26:54.887Z,43.31
2022-09-18T12:29:26.862Z,43.40
2022-09-18T12:32:04.642Z,43.40
2022-09-18T12:35:16.061Z,43.69
2022-09-18T12:37:42.842Z,43.68
2022-09-18T12:40:19.524Z,43.57
2022-09-18T12:43:25.080Z,43.66
2022-09-18T12:46:10.048Z,43.78
2022-09-18T12:49:04.628Z,43.95
2022-09-18T12:51:40.384Z,43.81
2022-09-18T12:54:44.172Z,43.57
2022-09-18T12:57:16.732Z,43.70
2022-09-18T12:59:56.309Z,43.86
2022-09-18T13:02:37.746Z,43.88
2022-09-18T13:05:12.774Z,43.58
2022-09-18T13:07:56.051Z,43.87
2022-09-18T13:10:31.030Z,44.27
2022-09-18T13:13:06.625Z,44.27
2022-09-18T13:15:40.395Z,44.42
2022-09-18T13:18:26.176Z,44.79
2022-09-18T13:20:54.162Z,44.84
2022-09-18T13:23:26.705Z,44.74
2022-09-18T13:25:55.020Z,44.92
2022-09-18T13:28:23.684Z,44.79
2022-09-18T13:31:22.308Z,44.80
2022-09-18T13:34:17.522Z,44.57
2022-09-18T13:36:46.019Z,44.82
2022-09-18T13:39:22.171Z,44.88
2022-09-18T13:41:58.474Z,44.98
2022-09-18T13:44:30.684Z,44.95
2022-09-18T13:47:14.244Z,44.87
2022-09-18T13:49:48.745Z,44.83
2022-09-18T13:52:31.452Z,44.87
2022-09-18T13:55:13.067Z,44.83
2022-09-18T13:57:41.438Z,44.74
2022-09-18T14:00:34.068Z,44.76
2022-09-18T14:03:06.715Z,44.69
2022-09-18T14:05:38.034Z,44.63
2022-09-18T14:08:20.178Z,44.78
2022-09-18T14:10:59.827Z,44.80
2022-09-18T14:13:43.610Z,44.92
2022-09-18T14:16:40.674Z,44.81
2022-09-18T14:19:31.217Z,44.86
2022-09-18T14:21:59.377Z,44.90
2022-09-18T14:24:50.604Z,44.73
2022-09-18T14:27:46.255Z,44.83
2022-09-18T14:30:31.453Z,44.80
2022-09-18T14:33:22.881Z,44.87
2022-09-18T14:36:05.860Z,44.74
2022-09-18T14:38:35.719Z,44.91
2022-09-18T14:41:07.117Z,45.07
2022-09-18T14:43:34.773Z,44.91
2022-09-18T14:46:01.730Z,44.87
2022-09-18T14:48:31.007Z,44.80
2022-09-18T14:51:06.364Z,45.12
2022-09-18T14:53:43.550Z,44.89
2022-09-18T14:56:15.942Z,44.89
2022-09-18T14:58:46.303Z,45.03
2022-09-18T15:01:24.341Z,44.99
2022-09-18T15:03:53.505Z,45.10
2022-09-18T15:06:24.180Z,45.00
2022-09-18T15:08:57.002Z,45.00
2022-09-18T15:11:34.526Z,44.98
2022-09-18T15:14:42.675Z,44.81
2022-09-18T15:17:26.924Z,45.03
2022-09-18T15:20:15.615Z,45.03
2022-09-18T15:22:42.352Z,44.96
2022-09-18T15:25:13.292Z,45.16
2022-09-18T15:27:41.656Z,45.04
2022-09-18T15:30:18.588Z,44.84
2022-09-18T15:33:07.843Z,45.07
2022-09-18T15:35:37.987Z,45.17
2022-09-18T15:38:08.219Z,44.85
2022-09-18T15:40:37.626Z,44.86
2022-09-18T15:43:26.134Z,44.91
2022-09-18T15:46:03.453Z,44.96
2022-09-18T15:48:35.171Z,44.94
2022-09-18T15:51:14.880Z,44.76
2022-09-18T15:54:00.162Z,44.97
2022-09-18T15:56:26.944Z,45.03
2022-09-18T15:58:59.263Z,44.87
2022-09-18T16:01:35.522Z,44.98
2022-09-18T16:04:08.894Z,44.95
2022-09-18T16:08:22.272Z,45.47
2022-09-18T16:10:51.905Z,45.50
2022-09-18T16:13:19.770Z,45.41
2022-09-18T16:15:47.821Z,45.56
2022-09-18T16:18:27.211Z,45.49
2022-09-18T16:20:57.852Z,45.47
2022-09-18T16:23:31.460Z,45.49
2022-09-18T16:26:24.942Z,45.52
2022-09-18T16:29:06.344Z,45.51
2022-09-18T16:31:36.160Z,45.52
2022-09-18T16:34:20.963Z,45.27
2022-09-18T16:36:48.046Z,45.51
2022-09-18T16:39:25.563Z,45.34
2022-09-18T16:41:52.880Z,45.30
2022-09-18T16:44:19.656Z,45.60
2022-09-18T16:46:49.753Z,45.90
2022-09-18T16:49:21.566Z,46.06
2022-09-18T16:51:48.351Z,46.04
2022-09-18T16:54:17.666Z,45.95
2022-09-18T16:56:54.132Z,46.06
2022-09-18T16:59:23.489Z,45.91
2022-09-18T17:02:03.470Z,45.81
2022-09-18T17:04:31.256Z,45.90
2022-09-18T17:07:01.571Z,45.85
2022-09-18T17:09:28.421Z,45.80
2022-09-18T17:11:55.348Z,46.07
2022-09-18T17:14:22.891Z,45.91
2022-09-18T17:16:49.604Z,46.02
2022-09-18T17:21:53.520Z,45.98
2022-09-18T17:24:25.477Z,45.96
2022-09-18T17:26:53.091Z,45.90
2022-09-18T17:29:19.691Z,45.81
2022-09-18T17:31:46.392Z,45.96
2022-09-18T17:34:13.087Z,45.96
2022-09-18T17:36:40.147Z,45.89
2022-09-18T17:39:07.439Z,45.77
2022-09-18T17:41:36.407Z,45.69
2022-09-18T17:44:04.024Z,45.37
2022-09-18T17:46:30.986Z,45.51
2022-09-18T17:48:59.580Z,45.50
2022-09-18T17:51:28.929Z,45.56
2022-09-18T17:54:02.899Z,45.44
2022-09-18T17:56:30.398Z,45.54
2022-09-18T17:58:59.949Z,45.86
2022-09-18T18:01:27.964Z,45.87
2022-09-18T18:03:55.171Z,45.79
2022-09-18T18:06:22.263Z,45.98
2022-09-18T18:08:50.222Z,45.94
2022-09-18T18:11:21.973Z,46.02
2022-09-18T18:13:50.177Z,45.91
2022-09-18T18:18:35.479Z,45.83
2022-09-18T18:21:02.177Z,45.93
2022-09-18T18:23:28.782Z,45.78
2022-09-18T18:25:55.366Z,46.08
2022-09-18T18:28:23.268Z,45.95
2022-09-18T18:31:12.275Z,45.78
2022-09-18T18:33:42.529Z,45.62
2022-09-18T18:36:13.541Z,45.95
2022-09-18T18:38:42.245Z,45.98
2022-09-18T18:41:09.928Z,45.91
2022-09-18T18:43:37.948Z,45.90
2022-09-18T18:46:11.171Z,46.03
2022-09-18T18:48:38.878Z,45.96
2022-09-18T18:51:11.082Z,45.92
2022-09-18T18:53:38.518Z,46.44
2022-09-18T18:56:13.838Z,46.78
2022-09-18T18:58:41.229Z,46.76
2022-09-18T19:01:14.577Z,46.75
2022-09-18T19:03:44.640Z,46.82
2022-09-18T19:06:12.083Z,46.86
2022-09-18T19:08:38.981Z,46.76
2022-09-18T19:11:06.782Z,47.28
2022-09-18T19:13:41.301Z,47.98
2022-09-18T19:16:08.081Z,47.80
2022-09-18T19:18:37.947Z,47.85
2022-09-18T19:21:05.726Z,47.54
2022-09-18T19:23:32.238Z,47.44
2022-09-18T19:26:00.272Z,47.61
2022-09-18T19:28:28.279Z,47.15
2022-09-18T19:31:04.700Z,46.91
2022-09-18T19:33:33.204Z,46.54
2022-09-18T19:36:08.405Z,46.66
2022-09-18T19:38:36.969Z,46.76
2022-09-18T19:41:16.372Z,46.81
2022-09-18T19:43:43.288Z,47.01
2022-09-18T19:46:14.232Z,47.24
2022-09-18T19:48:40.798Z,47.31
2022-09-18T19:51:07.911Z,47.31
2022-09-18T19:53:35.237Z,47.31
2022-09-18T19:56:02.783Z,47.56
2022-09-18T19:58:29.424Z,47.65
2022-09-18T20:00:56.778Z,47.48
2022-09-18T20:03:23.662Z,47.69
2022-09-18T20:05:50.592Z,47.70
2022-09-18T20:09:51.492Z,47.50
2022-09-18T20:12:18.285Z,47.57
2022-09-18T20:14:45.334Z,47.75
2022-09-18T20:17:13.938Z,47.50
2022-09-18T20:19:40.915Z,47.71
2022-09-18T20:22:07.706Z,47.70
2022-09-18T20:24:34.538Z,47.54
2022-09-18T20:27:01.662Z,47.68
2022-09-18T20:29:30.650Z,47.47
2022-09-18T20:31:58.079Z,47.47
2022-09-18T20:34:25.760Z,47.53
2022-09-18T20:36:55.365Z,47.64
2022-09-18T20:39:22.635Z,47.71
2022-09-18T20:41:51.247Z,47.45
2022-09-18T20:44:18.096Z,47.82
2022-09-18T20:46:45.292Z,47.75
2022-09-18T20:49:17.443Z,48.03
2022-09-18T20:51:43.947Z,47.85
2022-09-18T20:54:13.961Z,47.63
2022-09-18T20:56:43.450Z,47.70
2022-09-18T20:59:16.396Z,47.82
2022-09-18T21:01:48.162Z,47.89
2022-09-18T21:04:17.357Z,47.69
2022-09-18T21:06:47.112Z,47.90
2022-09-18T21:09:15.301Z,47.90
2022-09-18T21:11:44.824Z,48.09
2022-09-18T21:14:16.001Z,48.13
2022-09-18T21:16:45.226Z,48.19
2022-09-18T21:19:19.442Z,48.38
2022-09-18T21:21:49.344Z,48.29
2022-09-18T21:24:17.361Z,48.38
2022-09-18T21:26:47.954Z,48.51
2022-09-18T21:29:21.252Z,48.38
2022-09-18T21:31:51.416Z,48.54
2022-09-18T21:34:26.121Z,48.55
2022-09-18T21:36:58.242Z,48.38
2022-09-18T21:39:26.468Z,48.07
2022-09-18T21:41:54.525Z,47.97
2022-09-18T21:44:29.533Z,47.83
2022-09-18T21:47:02.188Z,47.41
2022-09-18T21:49:29.971Z,47.11
2022-09-18T21:51:59.412Z,46.92
2022-09-18T21:54:27.992Z,46.95
2022-09-18T21:56:56.669Z,46.76
2022-09-18T21:59:26.389Z,46.49
2022-09-18T22:01:54.769Z,46.56
2022-09-18T22:04:31.071Z,46.37
2022-09-18T22:07:00.251Z,46.48
2022-09-18T22:09:32.581Z,46.35
2022-09-18T22:11:59.916Z,46.40
2022-09-18T22:14:31.317Z,46.45
2022-09-18T22:17:02.978Z,46.37
2022-09-18T22:19:30.172Z,46.13
2022-09-18T22:21:56.770Z,46.26
2022-09-18T22:24:25.611Z,46.03
2022-09-18T22:27:03.036Z,46.20
2022-09-18T22:29:32.943Z,46.11
2022-09-18T22:32:00.304Z,46.17
2022-09-18T22:34:29.888Z,46.01
2022-09-18T22:36:57.753Z,45.95
2022-09-18T22:39:24.337Z,45.96
2022-09-18T22:44:12.411Z,45.79
2022-09-18T22:46:41.571Z,45.94
2022-09-18T22:49:12.005Z,45.93
2022-09-18T22:51:39.872Z,45.82
2022-09-18T22:54:10.164Z,45.97
2022-09-18T22:56:40.267Z,45.73
2022-09-18T22:59:07.239Z,45.73
2022-09-18T23:01:37.590Z,45.94
2022-09-18T23:04:05.974Z,45.95
2022-09-18T23:06:33.447Z,45.94
2022-09-18T23:09:00.847Z,45.73
2022-09-18T23:11:30.266Z,45.62
2022-09-18T23:13:59.316Z,45.59
2022-09-18T23:16:27.750Z,45.85
2022-09-18T23:18:58.132Z,45.87
2022-09-18T23:21:27.124Z,45.60
2022-09-18T23:23:56.770Z,45.58
2022-09-18T23:26:26.708Z,45.67
2022-09-18T23:28:57.470Z,45.58
2022-09-18T23:31:26.990Z,45.58
2022-09-18T23:33:59.298Z,45.66
2022-09-18T23:36:28.762Z,45.58
2022-09-18T23:39:01.001Z,45.71
2022-09-18T23:41:36.353Z,45.58
2022-09-18T23:44:06.796Z,45.50
2022-09-18T23:46:34.209Z,45.48
2022-09-18T23:49:01.416Z,45.60
2022-09-18T23:51:31.684Z,45.62
2022-09-18T23:54:00.840Z,45.59
2022-09-18T23:56:32.187Z,45.63
2022-09-18T23:59:04.715Z,45.56
